.
WxDataArchive / Data Records for 2013-06-28
2013-06-27 June 2013 2013-06-29

Data Records for Friday, 28 June 2013

Time	Temp	Chill	HIndex	Humid	Dewpt	 Wind 	HiWind	WindDir	Rain 	Barom 
-----	----	-----	------	-----	-----	------	------	-------	-----	----- 
00:00	68.4	68.4	68.4	95	66.9	0	0	---	0.00	29.633 
00:05	68.4	68.4	68.4	95	66.9	0	0	---	0.00	29.633 
00:10	68.4	68.4	68.4	95	66.9	0	0	---	0.00	29.633 
00:15	68.4	68.4	68.4	95	66.9	0	0	---	0.00	29.636 
00:20	68.4	68.4	68.4	95	66.9	0	0	---	0.00	29.636 
00:25	68.4	68.4	68.4	95	66.9	0	0	---	0.00	29.636 
00:30	68.6	68.6	68.6	95	67.1	0	0	---	0.00	29.641 
00:35	68.6	68.6	68.6	95	67.1	0	0	---	0.00	29.641 
00:40	68.8	68.8	68.8	95	67.3	0	0	---	0.00	29.641 
00:45	68.8	68.8	68.8	96	67.6	0	0	---	0.00	29.634 
00:50	68.9	68.9	68.9	96	67.7	0	0	---	0.00	29.634 
00:55	68.9	68.9	68.9	95	67.4	0	0	---	0.00	29.634 
01:00	68.9	68.9	68.9	96	67.7	0	0	---	0.00	29.625 
01:05	68.8	68.8	68.8	96	67.6	0	0	---	0.00	29.625 
01:10	68.8	68.8	68.8	96	67.6	0	0	---	0.00	29.625 
01:15	68.6	68.6	68.6	96	67.4	0	0	---	0.00	29.625 
01:20	68.6	68.6	68.6	96	67.4	0	0	---	0.00	29.625 
01:25	68.6	68.6	68.6	96	67.4	0	0	---	0.00	29.625 
01:30	68.6	68.6	68.6	96	67.4	0	0	---	0.00	29.617 
01:35	68.4	68.4	68.4	96	67.2	0	1	315	0.00	29.617 
01:40	68.4	68.4	68.4	96	67.2	0	1	315	0.00	29.617 
01:45	68.3	68.3	68.3	96	67.1	0	1	315	0.00	29.628 
01:50	68.1	68.1	68.1	96	66.9	0	0	---	0.00	29.628 
01:55	68.1	68.1	68.1	96	66.9	0	1	315	0.00	29.628 
02:00	68.1	68.1	68.1	96	66.9	0	0	---	0.00	29.631 
02:05	67.9	67.9	67.9	96	66.7	0	1	315	0.00	29.631 
02:10	67.9	67.9	67.9	96	66.7	0	0	---	0.00	29.631 
02:15	67.8	67.8	67.8	96	66.6	0	1	315	0.00	29.628 
02:20	67.8	67.8	67.8	96	66.6	0	1	315	0.00	29.628 
02:25	67.8	67.8	67.8	96	66.6	0	1	315	0.00	29.628 
02:30	67.8	67.8	67.8	96	66.6	0	1	315	0.00	29.626 
02:35	67.8	67.8	67.8	96	66.6	0	2	315	0.00	29.626 
02:40	67.6	67.6	67.6	96	66.4	0	1	315	0.00	29.626 
02:45	67.6	67.6	67.6	96	66.4	0	1	315	0.00	29.618 
02:50	67.6	67.6	67.6	96	66.4	0	1	315	0.00	29.618 
02:55	67.6	67.6	67.6	96	66.4	0	1	315	0.00	29.618 
03:00	67.6	67.6	67.6	96	66.4	0	1	315	0.00	29.615 
03:05	67.6	67.6	67.6	96	66.4	0	1	315	0.00	29.615 
03:10	67.4	67.4	67.4	96	66.2	0	1	315	0.00	29.615 
03:15	67.4	67.4	67.4	96	66.2	0	1	315	0.00	29.614 
03:20	67.4	67.4	67.4	96	66.2	0	1	315	0.00	29.614 
03:25	67.4	67.4	67.4	96	66.2	0	1	315	0.00	29.614 
03:30	67.4	67.4	67.4	96	66.2	0	1	315	0.00	29.605 
03:35	67.4	67.4	67.4	96	66.2	0	1	315	0.00	29.605 
03:40	67.4	67.4	67.4	96	66.2	0	1	315	0.00	29.605 
03:45	67.3	67.3	67.3	96	66.1	0	1	315	0.00	29.604 
03:50	67.3	67.3	67.3	96	66.1	0	1	315	0.00	29.604 
03:55	67.3	67.3	67.3	96	66.1	0	0	---	0.00	29.604 
04:00	67.1	67.1	67.1	96	65.9	0	0	---	0.00	29.599 
04:05	67.1	67.1	67.1	96	65.9	0	0	---	0.00	29.599 
04:10	66.9	66.9	66.9	96	65.7	0	0	---	0.00	29.599 
04:15	66.8	66.8	66.8	96	65.6	0	0	---	0.00	29.595 
04:20	66.9	66.9	66.9	96	65.7	0	0	---	0.00	29.595 
04:25	66.9	66.9	66.9	96	65.7	0	0	---	0.00	29.595 
04:30	66.8	66.8	66.8	96	65.6	0	0	---	0.00	29.599 
04:35	66.9	66.9	66.9	96	65.7	0	0	---	0.00	29.599 
04:40	66.9	66.9	66.9	96	65.7	0	1	315	0.00	29.599 
04:45	66.9	66.9	66.9	96	65.7	0	1	315	0.00	29.597 
04:50	66.9	66.9	66.9	96	65.7	0	1	315	0.00	29.597 
04:55	66.8	66.8	66.8	96	65.6	0	0	---	0.00	29.597 
05:00	66.8	66.8	66.8	96	65.6	0	0	---	0.00	29.598 
05:05	66.6	66.6	66.6	96	65.4	0	1	315	0.00	29.598 
05:10	66.6	66.6	66.6	96	65.4	0	1	315	0.00	29.598 
05:15	66.6	66.6	66.6	96	65.4	0	1	315	0.00	29.600 
05:20	66.6	66.6	66.6	96	65.4	0	2	315	0.00	29.600 
05:25	66.6	66.6	66.6	96	65.4	0	1	315	0.00	29.600 
05:30	66.4	66.4	66.4	96	65.2	0	1	315	0.00	29.601 
05:35	66.4	66.4	66.4	96	65.2	0	1	315	0.00	29.601 
05:40	66.4	66.4	66.4	96	65.2	0	1	315	0.00	29.601 
05:45	66.3	66.3	66.3	96	65.1	0	0	---	0.00	29.599 
05:50	66.3	66.3	66.3	96	65.1	0	1	315	0.00	29.599 
05:55	66.3	66.3	66.3	96	65.1	0	1	315	0.00	29.599 
06:00	66.3	66.3	66.3	96	65.1	0	2	315	0.00	29.600 
06:05	66.3	66.3	66.3	96	65.1	0	1	315	0.00	29.600 
06:10	66.3	66.3	66.3	96	65.1	0	1	315	0.00	29.600 
06:15	66.3	66.3	66.3	96	65.1	0	1	315	0.00	29.600 
06:20	66.3	66.3	66.3	96	65.1	1	3	315	0.00	29.600 
06:25	66.3	66.3	66.3	96	65.1	1	2	315	0.00	29.600 
06:30	66.3	66.3	66.3	96	65.1	0	3	315	0.00	29.601 
06:35	66.3	66.3	66.3	96	65.1	1	4	315	0.00	29.601 
06:40	66.3	66.3	66.3	96	65.1	1	3	315	0.00	29.601 
06:45	66.3	66.3	66.3	96	65.1	1	2	315	0.00	29.596 
06:50	66.3	66.3	66.3	96	65.1	1	3	315	0.00	29.596 
06:55	66.3	66.3	66.3	96	65.1	1	3	315	0.00	29.596 
07:00	66.4	66.4	66.4	96	65.2	1	3	292	0.00	29.600 
07:05	66.4	66.4	66.4	96	65.2	1	3	292	0.01	29.600 
07:10	66.6	66.6	66.6	96	65.4	1	2	292	0.00	29.600 
07:15	66.6	66.6	66.6	96	65.4	1	3	270	0.00	29.598 
07:20	66.8	66.8	66.8	96	65.6	1	2	270	0.00	29.598 
07:25	66.9	66.9	66.9	96	65.7	1	3	270	0.00	29.598 
07:30	67.1	67.1	67.1	96	65.9	1	3	270	0.00	29.600 
07:35	67.3	67.3	67.3	96	66.1	1	3	270	0.00	29.600 
07:40	67.4	67.4	67.4	95	65.9	1	3	270	0.00	29.600 
07:45	67.6	67.6	67.6	95	66.1	2	4	270	0.00	29.599 
07:50	67.9	67.9	67.9	95	66.4	1	3	270	0.00	29.599 
07:55	68.3	68.3	68.3	94	66.5	2	4	338	0.00	29.599 
08:00	68.4	68.4	68.4	94	66.6	1	4	292	0.00	29.598 
08:05	68.6	68.6	68.6	93	66.5	1	3	315	0.00	29.598 
08:10	68.9	68.9	68.9	92	66.5	2	5	292	0.00	29.598 
08:15	69.3	69.3	69.3	92	66.9	1	3	292	0.00	29.600 
08:20	69.3	69.3	69.3	91	66.6	2	5	292	0.00	29.600 
08:25	69.3	69.3	69.3	89	65.9	3	5	270	0.00	29.600 
08:30	69.4	69.4	69.4	89	66.0	2	4	292	0.00	29.600 
08:35	69.8	69.8	69.8	88	66.1	1	4	315	0.00	29.600 
08:40	69.9	69.9	69.9	88	66.2	2	5	292	0.00	29.600 
08:45	70.1	70.1	70.1	87	66.0	2	4	292	0.00	29.599 
08:50	70.3	70.3	70.3	86	65.9	2	6	270	0.00	29.599 
08:55	70.4	70.4	70.4	86	66.0	2	4	270	0.00	29.599 
09:00	70.6	70.6	70.6	85	65.9	2	5	315	0.00	29.598 
09:05	70.9	70.9	70.9	85	66.2	2	4	270	0.00	29.598 
09:10	71.1	71.1	71.1	84	66.0	2	5	315	0.00	29.598 
09:15	71.3	71.3	71.3	83	65.9	2	5	338	0.00	29.607 
09:20	71.3	71.3	71.3	83	65.9	3	5	270	0.00	29.607 
09:25	71.6	71.6	71.6	83	66.2	2	5	270	0.00	29.607 
09:30	72.0	72.0	72.0	82	66.2	1	4	270	0.00	29.600 
09:35	72.3	72.3	72.3	81	66.1	2	4	292	0.00	29.600 
09:40	72.7	72.7	72.7	81	66.5	2	4	270	0.00	29.600 
09:45	73.0	73.0	73.0	80	66.5	1	4	270	0.00	29.604 
09:50	73.2	73.2	73.2	79	66.3	2	4	315	0.00	29.604 
09:55	73.3	73.3	73.3	78	66.0	2	5	270	0.00	29.604 
10:00	73.5	73.5	73.5	78	66.2	2	4	270	0.00	29.603 
10:05	73.7	73.7	73.7	78	66.4	2	5	270	0.00	29.603 
10:10	73.9	73.9	73.9	77	66.2	1	3	270	0.00	29.603 
10:15	73.9	73.9	73.9	74	65.1	2	4	270	0.00	29.603 
10:20	74.2	74.2	74.2	74	65.4	2	4	315	0.00	29.603 
10:25	74.6	74.6	74.6	71	64.6	2	5	270	0.00	29.603 
10:30	74.6	74.6	74.6	72	65.0	3	5	270	0.00	29.601 
10:35	74.4	74.4	74.4	70	64.0	3	6	292	0.00	29.601 
10:40	74.6	74.6	74.6	70	64.2	2	4	315	0.00	29.601 
10:45	75.1	75.1	76.9	69	64.2	2	4	315	0.00	29.597 
10:50	75.4	75.4	77.4	65	62.8	4	7	270	0.00	29.597 
10:55	75.6	75.6	77.6	63	62.1	3	7	270	0.00	29.597 
11:00	76.0	76.0	77.9	63	62.5	3	7	292	0.00	29.601 
11:05	76.0	76.0	77.9	64	62.9	3	6	270	0.00	29.601 
11:10	76.1	76.1	78.1	61	61.7	4	7	270	0.00	29.601 
11:15	76.3	76.3	78.2	63	62.8	3	6	270	0.00	29.603 
11:20	76.5	76.5	78.4	61	62.0	3	7	292	0.00	29.603 
11:25	76.3	76.3	78.2	62	62.3	2	5	338	0.00	29.603 
11:30	76.5	76.5	78.4	62	62.5	2	5	315	0.00	29.601 
11:35	76.8	76.8	78.6	61	62.3	3	5	270	0.00	29.601 
11:40	77.2	77.2	79.0	62	63.2	2	5	315	0.00	29.601 
11:45	77.4	77.4	79.1	59	61.9	3	9	270	0.00	29.600 
11:50	77.4	77.4	79.1	59	61.9	3	6	315	0.00	29.600 
11:55	77.6	77.6	79.3	61	63.1	2	5	292	0.00	29.600 
12:00	77.7	77.7	79.3	58	61.7	3	6	270	0.00	29.597 
12:05	77.9	77.9	79.6	60	62.9	2	5	270	0.00	29.597 
12:10	78.5	78.5	80.2	60	63.4	2	5	270	0.00	29.597 
12:15	78.5	78.5	80.2	60	63.4	3	5	270	0.00	29.597 
12:20	78.5	78.5	80.0	58	62.5	3	6	292	0.00	29.597 
12:25	78.6	78.6	80.1	58	62.6	3	6	292	0.00	29.597 
12:30	78.6	78.6	80.1	58	62.6	3	7	292	0.00	29.594 
12:35	78.6	78.6	80.1	57	62.1	3	6	270	0.00	29.594 
12:40	78.6	78.6	79.8	53	60.0	4	8	292	0.00	29.594 
12:45	78.5	78.5	79.8	54	60.4	3	7	338	0.00	29.590 
12:50	78.8	78.8	80.1	55	61.2	2	5	338	0.00	29.590 
12:55	79.0	79.0	80.4	56	61.9	3	6	292	0.00	29.590 
13:00	78.8	78.8	80.3	57	62.3	4	7	270	0.00	29.589 
13:05	78.5	78.5	80.0	57	62.0	3	6	270	0.00	29.589 
13:10	78.3	78.3	79.8	57	61.8	3	5	270	0.00	29.589 
13:15	78.5	78.5	80.0	58	62.5	3	6	270	0.00	29.587 
13:20	79.2	79.2	80.4	54	61.1	3	6	292	0.00	29.587 
13:25	79.6	79.6	80.8	54	61.5	3	5	315	0.00	29.587 
13:30	79.8	79.8	81.1	55	62.2	3	5	292	0.00	29.579 
13:35	80.1	80.1	81.4	55	62.4	3	4	270	0.00	29.579 
13:40	79.9	79.9	80.8	51	60.1	3	8	270	0.00	29.579 
13:45	79.4	79.4	80.5	53	60.8	3	6	292	0.00	29.571 
13:50	79.6	79.6	80.8	54	61.5	2	5	292	0.00	29.571 
13:55	79.8	79.8	81.0	54	61.7	3	5	270	0.00	29.571 
14:00	80.3	80.3	81.6	55	62.6	2	4	315	0.00	29.562 
14:05	80.3	80.3	81.7	56	63.1	2	4	270	0.00	29.562 
14:10	80.5	80.5	81.6	53	61.8	3	6	270	0.00	29.562 
14:15	80.1	80.1	81.3	54	61.9	2	5	270	0.00	29.559 
14:20	80.3	80.3	81.5	54	62.1	3	6	270	0.00	29.559 
14:25	80.9	80.9	82.0	53	62.1	2	5	270	0.00	29.559 
14:30	80.3	80.3	81.5	54	62.1	3	9	270	0.00	29.556 
14:35	80.3	80.3	81.5	54	62.1	3	5	292	0.00	29.556 
14:40	80.7	80.7	81.9	54	62.5	3	6	270	0.00	29.556 
14:45	80.5	80.5	81.5	52	61.2	4	6	270	0.00	29.552 
14:50	79.4	79.4	80.4	51	59.7	4	7	270	0.00	29.552 
14:55	79.9	79.9	80.9	52	60.7	3	7	270	0.00	29.552 
15:00	80.9	80.9	81.9	52	61.6	3	7	270	0.00	29.545 
15:05	81.8	81.8	82.4	49	60.7	2	9	270	0.00	29.545 
15:10	81.8	81.8	82.4	49	60.7	3	9	292	0.00	29.545 
15:15	81.6	81.6	82.2	49	60.6	3	6	270	0.00	29.541 
15:20	81.1	81.1	81.6	48	59.5	3	7	270	0.00	29.541 
15:25	79.8	79.8	80.6	50	59.5	5	10	270	0.00	29.541 
15:30	75.4	75.4	77.6	61	61.0	8	16	270	0.03	29.571 
15:35	70.8	70.8	70.8	76	62.8	2	10	112	0.20	29.571 
15:40	68.6	68.6	68.6	81	62.5	1	3	112	0.01	29.571 
15:45	67.9	67.9	67.9	84	62.9	0	0	---	0.00	29.580 
15:50	68.9	68.9	68.9	88	65.2	0	2	112	0.00	29.580 
15:55	69.3	69.3	69.3	87	65.3	1	3	45	0.00	29.580 
16:00	70.1	70.1	70.1	86	65.7	1	3	315	0.00	29.568 
16:05	70.6	70.6	70.6	83	65.2	2	3	292	0.00	29.568 
16:10	71.1	71.1	71.1	81	65.0	1	3	292	0.00	29.568 
16:15	71.3	71.3	71.3	79	64.4	2	3	292	0.00	29.560 
16:20	71.6	71.6	71.6	78	64.4	2	4	292	0.00	29.560 
16:25	72.1	72.1	72.1	78	64.8	1	2	292	0.00	29.560 
16:30	72.5	72.5	72.5	78	65.2	1	3	292	0.00	29.555 
16:35	73.3	73.3	73.3	78	66.0	1	2	292	0.00	29.555 
16:40	74.6	74.6	74.6	75	66.1	1	4	315	0.00	29.555 
16:45	76.0	76.0	77.7	69	65.1	1	4	292	0.00	29.543 
16:50	77.0	77.0	78.8	65	64.3	2	5	315	0.00	29.543 
16:55	77.9	77.9	79.7	64	64.7	2	3	338	0.00	29.543 
17:00	78.1	78.1	79.8	60	63.1	3	6	270	0.00	29.537 
17:05	77.6	77.6	79.3	60	62.6	2	5	270	0.00	29.537 
17:10	77.9	77.9	79.4	55	60.4	3	9	315	0.00	29.537 
17:15	78.8	78.8	79.9	52	59.7	4	7	270	0.00	29.542 
17:20	79.4	79.4	80.2	49	58.5	3	6	292	0.00	29.542 
17:25	79.6	79.6	80.2	47	57.6	3	6	270	0.00	29.542 
17:30	79.8	79.8	80.3	46	57.2	5	9	270	0.00	29.540 
17:35	79.9	79.9	80.4	46	57.2	4	9	270	0.00	29.540 
17:40	79.9	79.9	80.4	47	57.8	3	7	292	0.00	29.540 
17:45	80.1	80.1	80.6	47	58.0	3	6	270	0.00	29.541 
17:50	79.8	79.8	80.3	46	57.2	4	7	315	0.00	29.541 
17:55	79.4	79.4	79.9	45	56.2	3	7	315	0.00	29.541 
18:00	79.2	79.2	79.7	44	55.4	5	10	315	0.00	29.546 
18:05	79.0	79.0	79.4	42	53.9	5	10	292	0.00	29.546 
18:10	79.0	79.0	79.6	44	55.2	4	10	315	0.00	29.546 
18:15	78.8	78.8	79.4	44	55.0	3	7	292	0.00	29.545 
18:20	78.8	78.8	79.5	45	55.6	4	9	292	0.00	29.545 
18:25	78.8	78.8	79.6	46	56.2	3	6	315	0.00	29.545 
18:30	78.8	78.8	79.6	47	56.8	3	6	315	0.00	29.547 
18:35	78.8	78.8	79.6	46	56.2	4	7	270	0.00	29.547 
18:40	78.5	78.5	79.4	47	56.6	4	9	292	0.00	29.547 
18:45	78.6	78.6	79.5	48	57.2	3	5	270	0.00	29.546 
18:50	78.5	78.5	79.4	47	56.6	3	6	270	0.00	29.546 
18:55	78.6	78.6	79.5	48	57.2	3	9	270	0.00	29.546 
19:00	78.6	78.6	79.7	50	58.4	2	6	292	0.00	29.545 
19:05	79.0	79.0	80.0	50	58.7	1	3	292	0.00	29.545 
19:10	79.0	79.0	80.0	50	58.7	1	4	292	0.00	29.545 
19:15	79.0	79.0	80.0	50	58.7	2	6	315	0.00	29.546 
19:20	78.6	78.6	79.7	50	58.4	3	5	292	0.00	29.546 
19:25	78.3	78.3	79.6	53	59.7	2	6	292	0.00	29.546 
19:30	77.9	77.9	79.3	53	59.4	1	4	292	0.00	29.553 
19:35	77.9	77.9	79.3	54	59.9	1	3	315	0.00	29.553 
19:40	77.9	77.9	79.3	54	59.9	2	4	315	0.00	29.553 
19:45	77.7	77.7	79.2	54	59.7	1	4	292	0.00	29.555 
19:50	77.6	77.6	79.1	53	59.1	2	5	292	0.00	29.555 
19:55	77.4	77.4	79.0	54	59.4	1	4	292	0.00	29.555 
20:00	77.0	77.0	78.7	54	59.1	1	4	292	0.00	29.558 
20:05	76.7	76.7	78.5	55	59.3	2	4	292	0.00	29.558 
20:10	76.7	76.7	78.5	54	58.8	2	6	292	0.00	29.558 
20:15	76.7	76.7	78.5	54	58.8	1	4	270	0.00	29.553 
20:20	76.5	76.5	78.4	54	58.6	1	3	270	0.00	29.553 
20:25	76.3	76.3	78.3	54	58.4	1	4	270	0.00	29.553 
20:30	76.0	76.0	78.1	54	58.1	1	5	270	0.00	29.556 
20:35	75.8	75.8	78.0	54	57.9	0	1	338	0.00	29.556 
20:40	75.4	75.4	77.8	54	57.6	0	1	338	0.00	29.556 
20:45	75.3	75.3	77.7	55	58.0	0	1	338	0.00	29.555 
20:50	75.1	75.1	77.6	55	57.8	0	3	338	0.00	29.555 
20:55	74.9	74.9	74.9	56	58.1	0	2	338	0.00	29.555 
21:00	74.6	74.6	74.6	56	57.8	0	1	338	0.00	29.554 
21:05	74.2	74.2	74.2	57	58.0	0	1	338	0.00	29.554 
21:10	73.9	73.9	73.9	58	58.2	0	0	---	0.00	29.554 
21:15	73.5	73.5	73.5	59	58.3	0	0	---	0.00	29.554 
21:20	73.2	73.2	73.2	59	58.0	0	0	---	0.00	29.554 
21:25	73.0	73.0	73.0	60	58.3	0	0	---	0.00	29.554 
21:30	72.7	72.7	72.7	61	58.5	0	0	---	0.00	29.556 
21:35	72.5	72.5	72.5	61	58.3	0	0	---	0.00	29.556 
21:40	72.1	72.1	72.1	62	58.3	0	0	---	0.00	29.556 
21:45	72.0	72.0	72.0	62	58.3	0	0	---	0.00	29.555 
21:50	71.6	71.6	71.6	63	58.3	0	0	---	0.00	29.555 
21:55	71.5	71.5	71.5	64	58.7	0	0	---	0.00	29.555 
22:00	71.1	71.1	71.1	65	58.7	0	0	---	0.00	29.558 
22:05	70.9	70.9	70.9	65	58.5	0	0	---	0.00	29.558 
22:10	70.8	70.8	70.8	65	58.4	0	0	---	0.00	29.558 
22:15	70.4	70.4	70.4	66	58.5	0	0	---	0.00	29.557 
22:20	70.3	70.3	70.3	67	58.8	0	0	---	0.00	29.557 
22:25	70.1	70.1	70.1	69	59.4	0	0	---	0.00	29.557 
22:30	69.8	69.8	69.8	70	59.6	0	0	---	0.00	29.561 
22:35	69.4	69.4	69.4	71	59.6	0	0	---	0.00	29.561 
22:40	69.1	69.1	69.1	72	59.7	0	0	---	0.00	29.561 
22:45	68.9	68.9	68.9	74	60.3	0	0	---	0.00	29.566 
22:50	68.6	68.6	68.6	74	60.0	0	0	---	0.00	29.566 
22:55	68.6	68.6	68.6	75	60.3	0	0	---	0.00	29.566 
23:00	68.4	68.4	68.4	75	60.2	0	0	---	0.00	29.565 
23:05	68.3	68.3	68.3	76	60.4	0	0	---	0.00	29.565 
23:10	68.1	68.1	68.1	76	60.2	0	0	---	0.00	29.565 
23:15	67.9	67.9	67.9	76	60.0	0	0	---	0.00	29.564 
23:20	67.8	67.8	67.8	77	60.3	0	0	---	0.00	29.564 
23:25	67.8	67.8	67.8	77	60.3	0	0	---	0.00	29.564 
23:30	67.6	67.6	67.6	78	60.5	0	0	---	0.00	29.556 
23:35	67.6	67.6	67.6	78	60.5	0	0	---	0.00	29.556 
23:40	67.6	67.6	67.6	79	60.8	0	0	---	0.00	29.556 
23:45	67.6	67.6	67.6	79	60.8	0	0	---	0.00	29.553 
23:50	67.6	67.6	67.6	80	61.2	0	0	---	0.00	29.553 
23:55	67.6	67.6	67.6	80	61.2	0	1	338	0.00	29.553 

CoCoRaHS
IN-AL-39
A2 Web Hosting
Creative Commons License
GoDaddy
search engine by freefind advanced

loaded 2018-11-14 04:30:47 • last modified 2010-11-18 10:43:29
Privacy PolicyDisclaimer
• wx.awcolley.com is powered by PmWiki v.2002016 •
• all content (unless otherwise noted) © 2018 A W Colley